Rybinsk, Russia
Current Conditions -  °F | °C
As of 9:30 PM on Monday 22 Dec 2014 (Local Time) from UUDL Reporting Station
Overcast Overcast  
Wind Chill: 21°   Ceiling: 1500
Heat Index: 28°   Visibility: 6mi
Dew Point: 25°   Wind: 7mph
Humidity: 86%   Direction: 200°SSW
Pressure: 29.38"   Gusts: NA
Location:  58.05°N, 38.83°E
Report Text: UUDL 221830Z 20003MPS 9999 OVC015CB M02/M04 Q0995 NOSIG RMKQFE738 23490536
Loading
Personal Weather Stations






























Interactive Weather Map New forecast layout! Learn more

10-Day Weather Forecast

Advertisements
Track Severe Weather on mobile